Weather History for KSOP - October, 2011

Change the Weather History Date:

Thursday, October 27, 2011

  Actual Average Record
Temperature  
Mean Temperature 66 °F -  
Max Temperature 78 °F 67 °F 86 °F (2010)
Min Temperature 53 °F 44 °F 30 °F (2005)
Growing Degree Days 16 (Base 50)    
Moisture  
Dew Point 50 °F    
Average Humidity 59    
Maximum Humidity 77    
Minimum Humidity 41    
Precipitation  
Precipitation 0.00 in - - ()
Sea Level Pressure  
Sea Level Pressure 29.86 in    
Wind  
Wind Speed 10 mph (WSW)    
Max Wind Speed 17 mph    
Max Gust Speed 26 mph    
Visibility 10 miles    
Events      
Averages and records for this station are not official NWS values.
T = Trace of Precipitation, MM = Missing Value Source: NWS Daily Summary

Daily Weather History Graph

Daily Weather History Graph

Search for Another Location

Airport or City:

Trip Planner

Search our weather history database for the weather conditions in past years. The results will help you decide how hot, cold, wet, or windy it might be!

Date:

Astronomy

Oct. 27, 2011 Rise Set
Actual Time 7:33 AM EDT 6:28 PM EDT
Civil Twilight 7:07 AM EDT 6:54 PM EDT
Nautical Twilight 6:38 AM EDT 7:24 PM EDT
Astronomical Twilight 6:08 AM EDT 7:53 PM EDT
Moon 8:30 AM EDT (10/27) 7:01 PM EDT (10/27)
Length of Visible Light 11h 46m
Length of Day
10h 54m
New Moon, 1% of the Moon is Illuminated
Oct 27
New Moon
Nov 2
First Quarter
Nov 10
Full
Nov 18
Last Quarter
Nov 25
New

Hourly Weather History & Observations

Time (EDT) Temp. Dew Point Humidity Pressure Visibility Wind Dir Wind Speed Gust Speed Precip Events Conditions
12:15 AM 57.2 °F 48.2 °F 72% 29.94 in 10.0 mi SW 9.2 mph - N/A   Clear
12:35 AM 57.2 °F 48.2 °F 72% 29.93 in 10.0 mi SW 9.2 mph - N/A   Clear
1:15 AM 57.2 °F 48.2 °F 72% 29.93 in 10.0 mi SW 10.4 mph - N/A   Clear
1:35 AM 57.2 °F 48.2 °F 72% 29.92 in 10.0 mi SW 9.2 mph - N/A   Clear
2:15 AM 57.2 °F 48.2 °F 72% 29.91 in 10.0 mi SW 9.2 mph - N/A   Clear
2:35 AM 57.2 °F 46.4 °F 67% 29.91 in 10.0 mi SW 8.1 mph - N/A   Clear
2:55 AM 55.4 °F 46.4 °F 72% 29.91 in 10.0 mi SW 5.8 mph - N/A   Clear
3:15 AM 55.4 °F 46.4 °F 72% 29.90 in 10.0 mi SW 5.8 mph - N/A   Clear
3:35 AM 53.6 °F 46.4 °F 77% 29.90 in 10.0 mi SW 4.6 mph - N/A   Clear
4:15 AM 53.6 °F 46.4 °F 77% 29.89 in 10.0 mi WSW 5.8 mph - N/A   Clear
4:35 AM 53.6 °F 46.4 °F 77% 29.89 in 10.0 mi WSW 4.6 mph - N/A   Clear
4:55 AM 55.4 °F 46.4 °F 72% 29.89 in 10.0 mi WSW 6.9 mph - N/A   Clear
5:15 AM 55.4 °F 46.4 °F 72% 29.89 in 10.0 mi WSW 8.1 mph - N/A   Clear
5:35 AM 55.4 °F 46.4 °F 72% 29.89 in 10.0 mi SW 8.1 mph - N/A   Clear
5:55 AM 55.4 °F 46.4 °F 72% 29.89 in 10.0 mi WSW 6.9 mph - N/A   Clear
6:35 AM 53.6 °F 46.4 °F 77% 29.89 in 10.0 mi WSW 8.1 mph - N/A   Clear
6:55 AM 53.6 °F 46.4 °F 77% 29.88 in 10.0 mi WSW 5.8 mph - N/A   Clear
7:15 AM 53.6 °F 46.4 °F 77% 29.88 in 10.0 mi WSW 8.1 mph - N/A   Clear
7:35 AM 53.6 °F 46.4 °F 77% 29.88 in 10.0 mi SW 9.2 mph - N/A   Clear
7:55 AM 53.6 °F 46.4 °F 77% 29.88 in 10.0 mi SW 9.2 mph - N/A   Clear
8:15 AM 55.4 °F 46.4 °F 72% 29.88 in 10.0 mi SW 10.4 mph - N/A   Clear
8:35 AM 57.2 °F 46.4 °F 67% 29.88 in 10.0 mi WSW 10.4 mph - N/A   Clear
8:55 AM 59.0 °F 48.2 °F 67% 29.88 in 10.0 mi WSW 12.7 mph 18.4 mph N/A   Clear
9:15 AM 60.8 °F 48.2 °F 63% 29.88 in 10.0 mi WSW 12.7 mph 17.3 mph N/A   Clear
9:35 AM 62.6 °F 48.2 °F 59% 29.88 in 10.0 mi WSW 12.7 mph 18.4 mph N/A   Clear
9:55 AM 64.4 °F 50.0 °F 59% 29.88 in 10.0 mi West 10.4 mph 23.0 mph N/A   Clear
10:15 AM 66.2 °F 50.0 °F 56% 29.88 in 10.0 mi WSW 10.4 mph 19.6 mph N/A   Clear
10:35 AM 68.0 °F 51.8 °F 56% 29.88 in 10.0 mi WSW 10.4 mph 23.0 mph N/A   Clear
10:55 AM 69.8 °F 51.8 °F 53% 29.88 in 10.0 mi WSW 11.5 mph 17.3 mph N/A   Clear
11:15 AM 69.8 °F 51.8 °F 53% 29.87 in 10.0 mi West 13.8 mph 21.9 mph N/A   Clear
11:35 AM 71.6 °F 51.8 °F 50% 29.87 in 10.0 mi WSW 11.5 mph 24.2 mph N/A   Clear
11:55 AM 71.6 °F 51.8 °F 50% 29.87 in 10.0 mi WSW 17.3 mph 25.3 mph N/A   Clear
12:15 PM 73.4 °F 53.6 °F 50% 29.86 in 10.0 mi WSW 16.1 mph 26.5 mph N/A   Clear
12:35 PM 73.4 °F 53.6 °F 50% 29.85 in 10.0 mi WSW 12.7 mph 23.0 mph N/A   Clear
12:55 PM 73.4 °F 53.6 °F 50% 29.84 in 10.0 mi WSW 13.8 mph 21.9 mph N/A   Clear
1:15 PM 75.2 °F 53.6 °F 47% 29.83 in 10.0 mi WSW 11.5 mph 21.9 mph N/A   Clear
1:35 PM 75.2 °F 53.6 °F 47% 29.82 in 10.0 mi WSW 16.1 mph 24.2 mph N/A   Clear
1:55 PM 75.2 °F 51.8 °F 44% 29.81 in 10.0 mi WSW 15.0 mph 23.0 mph N/A   Clear
2:15 PM 77.0 °F 53.6 °F 44% 29.81 in 10.0 mi WSW 13.8 mph 23.0 mph N/A   Clear
2:35 PM 77.0 °F 53.6 °F 44% 29.80 in 10.0 mi WSW 12.7 mph 21.9 mph N/A   Clear
2:55 PM 77.0 °F 53.6 °F 44% 29.79 in 10.0 mi West 12.7 mph 18.4 mph N/A   Clear
3:15 PM 78.8 °F 53.6 °F 42% 29.79 in 10.0 mi WSW 13.8 mph 20.7 mph N/A   Clear
3:35 PM 78.8 °F 53.6 °F 42% 29.79 in 10.0 mi WSW 16.1 mph 19.6 mph N/A   Clear
3:55 PM 77.0 °F 51.8 °F 41% 29.79 in 10.0 mi WSW 12.7 mph 19.6 mph N/A   Clear
4:15 PM 77.0 °F 51.8 °F 41% 29.79 in 10.0 mi West 12.7 mph 17.3 mph N/A   Clear
4:35 PM 77.0 °F 51.8 °F 41% 29.78 in 10.0 mi SW 15.0 mph 25.3 mph N/A   Clear
4:55 PM 75.2 °F 51.8 °F 44% 29.78 in 10.0 mi WSW 16.1 mph 20.7 mph N/A   Clear
5:15 PM 75.2 °F 51.8 °F 44% 29.78 in 10.0 mi SW 11.5 mph 16.1 mph N/A   Clear
5:35 PM 75.2 °F 51.8 °F 44% 29.79 in 10.0 mi WSW 10.4 mph 17.3 mph N/A   Clear
5:55 PM 73.4 °F 51.8 °F 47% 29.79 in 10.0 mi WSW 11.5 mph 17.3 mph N/A   Clear
6:15 PM 71.6 °F 51.8 °F 50% 29.80 in 10.0 mi SW 11.5 mph - N/A   Clear
6:35 PM 71.6 °F 51.8 °F 50% 29.81 in 10.0 mi SW 11.5 mph - N/A   Clear
6:55 PM 69.8 °F 51.8 °F 53% 29.81 in 10.0 mi SW 9.2 mph - N/A   Clear
7:15 PM 69.8 °F 51.8 °F 53% 29.82 in 10.0 mi WSW 8.1 mph - N/A   Clear
7:35 PM 69.8 °F 51.8 °F 53% 29.82 in 10.0 mi SW 8.1 mph - N/A   Clear
7:55 PM 66.2 °F 51.8 °F 60% 29.83 in 10.0 mi SW 8.1 mph - N/A   Clear
8:15 PM 66.2 °F 51.8 °F 60% 29.83 in 10.0 mi SW 10.4 mph - N/A   Clear
8:35 PM 66.2 °F 51.8 °F 60% 29.83 in 10.0 mi SW 11.5 mph - N/A   Clear
9:15 PM 66.2 °F 51.8 °F 60% 29.84 in 10.0 mi WSW 10.4 mph 19.6 mph N/A   Clear
9:35 PM 66.2 °F 51.8 °F 60% 29.85 in 10.0 mi WSW 9.2 mph 16.1 mph N/A   Clear
9:55 PM 66.2 °F 51.8 °F 60% 29.86 in 10.0 mi WSW 9.2 mph - N/A   Clear
10:15 PM 66.2 °F 51.8 °F 60% 29.86 in 10.0 mi WSW 9.2 mph - N/A   Clear
10:35 PM 66.2 °F 51.8 °F 60% 29.87 in 10.0 mi WSW 8.1 mph - N/A   Clear
10:55 PM 64.4 °F 51.8 °F 64% 29.87 in 10.0 mi WSW 6.9 mph - N/A   Clear
11:15 PM 64.4 °F 51.8 °F 64% 29.88 in 10.0 mi WSW 6.9 mph - N/A   Clear
11:35 PM 64.4 °F 51.8 °F 64% 29.88 in 10.0 mi WSW 5.8 mph - N/A   Scattered Clouds
11:55 PM 62.6 °F 51.8 °F 68% 29.89 in 10.0 mi WSW 6.9 mph - N/A   Partly Cloudy